Time;durP1;ratioP1;P1;durP2;ratioP2;P2;SDS_P1;SDS_P2;PMS_P1;PMS_P2;Temp;Humidity;BMP_temperature;BMP_pressure;BME280_temperature;BME280_humidity;BME280_pressure;Samples;Min_cycle;Max_cycle;Signal;HPM_P1;HPM_P2
2022/06/23 00:01:06;;;;;;;2.60;2.40;;;;;;;;;;4992958;28;20033;-63
2022/06/23 00:03:33;;;;;;;2.33;2.22;;;;;;;;;;5027046;28;20124;-71
2022/06/23 00:06:00;;;;;;;2.40;2.20;;;;;;;;;;5027206;28;20037;-73
2022/06/23 00:08:26;;;;;;;2.42;2.22;;;;;;;;;;5026940;28;20029;-72
2022/06/23 00:11:00;;;;;;;2.53;2.33;;;;;;;;;;5008566;28;20029;-72
2022/06/23 00:13:32;;;;;;;2.70;2.10;;;;;;;;;;5026556;28;20037;-71
2022/06/23 00:15:57;;;;;;;2.40;2.20;;;;;;;;;;5009095;28;20029;-71
2022/06/23 00:18:27;;;;;;;2.55;2.05;;;;;;;;;;5026814;28;20040;-65
2022/06/23 00:20:55;;;;;;;2.17;2.03;;;;;;;;;;5027055;28;20041;-72
2022/06/23 00:23:23;;;;;;;2.17;2.08;;;;;;;;;;5026820;28;20379;-72
2022/06/23 00:25:58;;;;;;;2.08;1.90;;;;;;;;;;5026751;28;20037;-73
2022/06/23 00:28:29;;;;;;;1.90;1.80;;;;;;;;;;5024724;28;20045;-72
2022/06/23 00:31:06;;;;;;;2.88;1.90;;;;;;;;;;5026644;28;20542;-71
2022/06/23 00:33:39;;;;;;;2.72;2.08;;;;;;;;;;5026848;28;20052;-72
2022/06/23 00:36:17;;;;;;;2.53;1.85;;;;;;;;;;5026975;28;20029;-72
2022/06/23 00:38:44;;;;;;;1.88;1.77;;;;;;;;;;5026882;28;20136;-72
2022/06/23 00:41:18;;;;;;;2.33;1.77;;;;;;;;;;4992591;28;20033;-72
2022/06/23 00:43:48;;;;;;;1.80;1.70;;;;;;;;;;5008194;28;20033;-72
2022/06/23 00:46:14;;;;;;;;;;;;;;;;;;5027095;28;20057;-72
2022/06/23 00:48:42;;;;;;;2.08;1.88;;;;;;;;;;5026397;28;19979;-72
2022/06/23 00:51:15;;;;;;;2.05;1.83;;;;;;;;;;5008562;28;20049;-71
2022/06/23 00:54:04;;;;;;;2.65;2.10;;;;;;;;;;5026259;28;20044;-72
2022/06/23 00:56:32;;;;;;;2.03;1.92;;;;;;;;;;5008116;28;20037;-72
2022/06/23 00:59:24;;;;;;;1.98;1.77;;;;;;;;;;5026076;28;20029;-71
2022/06/23 01:01:53;;;;;;;1.67;1.58;;;;;;;;;;5022139;28;20507;-72
2022/06/23 01:04:39;;;;;;;2.85;1.55;;;;;;;;;;5025768;28;20049;-71
2022/06/23 01:07:13;;;;;;;1.60;1.50;;;;;;;;;;5025756;28;20045;-71
2022/06/23 01:09:50;;;;;;;2.67;1.70;;;;;;;;;;5026324;28;20043;-73
2022/06/23 01:12:27;;;;;;;3.78;1.70;;;;;;;;;;5008987;28;20042;-73
2022/06/23 01:14:56;;;;;;;1.70;1.58;;;;;;;;;;5030152;28;20056;-73
2022/06/23 01:17:34;;;;;;;2.03;1.88;;;;;;;;;;5030183;28;20040;-72
2022/06/23 01:20:18;;;;;;;1.83;1.73;;;;;;;;;;5030132;28;20041;-72
2022/06/23 01:22:49;;;;;;;1.95;1.60;;;;;;;;;;5011748;28;20038;-71
2022/06/23 01:25:27;;;;;;;1.70;1.60;;;;;;;;;;5030261;28;20474;-72
2022/06/23 01:27:58;;;;;;;1.55;1.45;;;;;;;;;;5012243;28;20052;-71
2022/06/23 01:30:26;;;;;;;1.80;1.70;;;;;;;;;;5029823;28;20087;-71
2022/06/23 01:32:54;;;;;;;2.25;1.83;;;;;;;;;;5029990;28;20025;-73
2022/06/23 01:35:40;;;;;;;2.00;1.63;;;;;;;;;;5029726;28;20449;-72
2022/06/23 01:38:11;;;;;;;3.90;1.80;;;;;;;;;;5029977;28;20033;-73
2022/06/23 01:40:49;;;;;;;1.50;1.45;;;;;;;;;;5029847;28;20152;-73
2022/06/23 01:43:24;;;;;;;1.83;1.73;;;;;;;;;;5028395;28;20048;-73
2022/06/23 01:45:59;;;;;;;1.98;1.77;;;;;;;;;;5012214;28;20441;-72
2022/06/23 01:48:51;;;;;;;2.20;2.00;;;;;;;;;;5012168;28;20037;-71
2022/06/23 01:51:25;;;;;;;1.80;1.70;;;;;;;;;;5029704;28;20491;-72
2022/06/23 01:53:52;;;;;;;2.30;2.10;;;;;;;;;;5029304;28;20502;-65
2022/06/23 01:56:22;;;;;;;1.90;1.75;;;;;;;;;;5029607;28;20033;-72
2022/06/23 01:58:51;;;;;;;1.85;1.75;;;;;;;;;;5029480;28;20369;-72
2022/06/23 02:01:24;;;;;;;1.90;1.67;;;;;;;;;;5029460;28;20067;-65
2022/06/23 02:03:55;;;;;;;2.25;2.05;;;;;;;;;;5010956;28;20055;-72
2022/06/23 02:06:41;;;;;;;1.88;1.73;;;;;;;;;;5011268;28;20052;-73
2022/06/23 02:09:25;;;;;;;3.13;1.80;;;;;;;;;;5011095;28;20107;-71
2022/06/23 02:11:52;;;;;;;2.00;1.90;;;;;;;;;;5029288;28;20095;-71
2022/06/23 02:14:19;;;;;;;2.30;2.13;;;;;;;;;;5029578;28;20120;-71
2022/06/23 02:16:52;;;;;;;2.60;2.05;;;;;;;;;;5029132;28;20029;-65
2022/06/23 02:19:24;;;;;;;2.05;1.90;;;;;;;;;;5028824;28;20048;-71
2022/06/23 02:22:10;;;;;;;1.95;1.85;;;;;;;;;;5028426;28;20032;-72
2022/06/23 02:24:44;;;;;;;2.38;1.75;;;;;;;;;;5027728;28;20069;-71
2022/06/23 02:27:29;;;;;;;3.17;2.03;;;;;;;;;;5028777;28;20030;-72
2022/06/23 02:29:54;;;;;;;2.00;1.90;;;;;;;;;;5028756;28;20037;-72
2022/06/23 02:32:23;;;;;;;2.10;1.90;;;;;;;;;;5028607;28;20047;-70
2022/06/23 02:35:01;;;;;;;2.58;2.05;;;;;;;;;;5029004;28;20033;-73
2022/06/23 02:37:45;;;;;;;1.77;1.67;;;;;;;;;;5023949;28;20120;-65
2022/06/23 02:40:16;;;;;;;2.70;1.70;;;;;;;;;;5011035;28;20159;-65
2022/06/23 02:42:41;;;;;;;1.75;1.45;;;;;;;;;;5028598;28;20029;-64
2022/06/23 02:45:07;;;;;;;1.63;1.52;;;;;;;;;;5028663;28;20387;-71
2022/06/23 02:47:41;;;;;;;2.40;1.80;;;;;;;;;;5010751;28;20136;-64
2022/06/23 02:50:13;;;;;;;3.17;1.85;;;;;;;;;;5010784;28;20030;-64
2022/06/23 02:52:48;;;;;;;1.95;1.73;;;;;;;;;;5028617;28;20092;-64
2022/06/23 02:55:32;;;;;;;1.90;1.52;;;;;;;;;;5028400;28;20094;-64
2022/06/23 02:58:05;;;;;;;1.50;1.40;;;;;;;;;;5028533;28;20475;-64
2022/06/23 03:00:32;;;;;;;1.58;1.48;;;;;;;;;;5028341;28;20034;-64
2022/06/23 03:03:01;;;;;;;2.00;1.58;;;;;;;;;;5028168;28;20025;-64
2022/06/23 03:05:46;;;;;;;1.95;1.70;;;;;;;;;;5027575;28;20060;-64
2022/06/23 03:08:12;;;;;;;1.60;1.50;;;;;;;;;;5028152;28;20368;-64
2022/06/23 03:10:41;;;;;;;2.50;1.83;;;;;;;;;;5028081;28;20032;-65
2022/06/23 03:13:14;;;;;;;1.88;1.77;;;;;;;;;;5009916;28;20132;-66
2022/06/23 03:15:41;;;;;;;1.80;1.70;;;;;;;;;;5028058;28;20060;-65
2022/06/23 03:18:09;;;;;;;1.63;1.50;;;;;;;;;;5009941;28;20029;-65
2022/06/23 03:20:48;;;;;;;1.75;1.65;;;;;;;;;;5027786;28;20026;-73
2022/06/23 03:23:34;;;;;;;1.58;1.48;;;;;;;;;;5027851;28;20037;-73
2022/06/23 03:26:02;;;;;;;1.70;1.52;;;;;;;;;;5013975;28;20107;-73
2022/06/23 03:28:53;;;;;;;1.58;1.48;;;;;;;;;;5027788;28;20014;-73
2022/06/23 03:31:24;;;;;;;1.65;1.55;;;;;;;;;;5000867;28;20068;-72
2022/06/23 03:33:52;;;;;;;1.52;1.45;;;;;;;;;;5034676;28;20031;-71
2022/06/23 03:36:24;;;;;;;2.63;1.42;;;;;;;;;;5034912;28;20026;-71
2022/06/23 03:41:39;;;;;;;1.92;1.48;;;;;;;;;;5017066;28;20038;-71
2022/06/23 03:44:07;;;;;;;2.55;1.80;;;;;;;;;;5034461;28;20071;-71
2022/06/23 03:46:38;;;;;;;3.38;1.63;;;;;;;;;;5034537;28;20109;-71
2022/06/23 03:49:10;;;;;;;2.17;1.70;;;;;;;;;;5017144;28;20061;-71
2022/06/23 03:51:38;;;;;;;2.53;1.75;;;;;;;;;;5016040;28;20025;-72
2022/06/23 03:54:03;;;;;;;2.00;1.90;;;;;;;;;;5034695;28;20341;-76
2022/06/23 03:56:37;;;;;;;2.83;1.73;;;;;;;;;;5060776;23;20115;-70
2022/06/23 03:59:12;;;;;;;2.03;1.83;;;;;;;;;;5033721;28;20038;-70
2022/06/23 04:01:58;;;;;;;3.17;2.30;;;;;;;;;;5032820;28;20033;-70
2022/06/23 04:04:37;;;;;;;2.30;2.13;;;;;;;;;;5012905;28;20038;-70
2022/06/23 04:07:23;;;;;;;3.95;2.35;;;;;;;;;;5030053;28;20105;-70
2022/06/23 04:09:50;;;;;;;1.88;1.77;;;;;;;;;;5030070;28;20079;-70
2022/06/23 04:12:16;;;;;;;3.70;1.95;;;;;;;;;;5012193;28;20061;-70
2022/06/23 04:14:47;;;;;;;2.17;1.98;;;;;;;;;;5030325;28;20021;-70
2022/06/23 04:17:22;;;;;;;3.65;2.60;;;;;;;;;;5012619;28;20121;-70
2022/06/23 04:19:50;;;;;;;2.35;2.13;;;;;;;;;;5028724;28;20374;-70
2022/06/23 04:22:15;;;;;;;3.10;2.42;;;;;;;;;;5029597;28;20058;-71
2022/06/23 04:24:42;;;;;;;2.42;2.22;;;;;;;;;;5014084;28;20391;-71
2022/06/23 04:27:17;;;;;;;3.45;2.38;;;;;;;;;;5033303;28;20114;-72
2022/06/23 04:29:43;;;;;;;2.47;2.28;;;;;;;;;;5032750;28;20036;-72
2022/06/23 04:32:19;;;;;;;4.60;2.92;;;;;;;;;;5032994;28;20017;-71
2022/06/23 04:34:56;;;;;;;8.43;3.65;;;;;;;;;;5032356;28;20079;-71
2022/06/23 04:37:34;;;;;;;11.35;4.35;;;;;;;;;;5032283;28;20061;-71
2022/06/23 04:40:07;;;;;;;6.07;3.00;;;;;;;;;;5031877;28;20044;-71
2022/06/23 04:42:33;;;;;;;7.22;3.47;;;;;;;;;;5032099;28;20091;-63
2022/06/23 04:45:17;;;;;;;5.05;2.92;;;;;;;;;;5032249;28;20022;-64
2022/06/23 04:47:43;;;;;;;4.53;2.72;;;;;;;;;;5033210;28;20032;-63
2022/06/23 04:50:12;;;;;;;5.25;3.10;;;;;;;;;;5035758;28;20017;-63
2022/06/23 04:52:43;;;;;;;3.80;2.95;;;;;;;;;;5035975;28;20036;-64
2022/06/23 04:55:18;;;;;;;2.80;2.60;;;;;;;;;;5035671;28;20510;-63
2022/06/23 04:57:48;;;;;;;3.92;2.80;;;;;;;;;;5018272;28;20037;-63
2022/06/23 05:00:21;;;;;;;2.65;2.47;;;;;;;;;;5036325;28;20060;-63
2022/06/23 05:02:48;;;;;;;2.63;2.35;;;;;;;;;;5018615;28;20109;-64
2022/06/23 05:05:19;;;;;;;2.35;2.20;;;;;;;;;;5036152;28;20023;-67
2022/06/23 05:07:44;;;;;;;;;;;;;;;;;;5036599;28;20068;-65
2022/06/23 05:10:19;;;;;;;3.43;2.43;;;;;;;;;;5036204;28;19905;-64
2022/06/23 05:12:48;;;;;;;2.80;2.50;;;;;;;;;;5036081;28;20057;-64
2022/06/23 05:15:19;;;;;;;1.92;1.83;;;;;;;;;;5035981;28;20104;-64
2022/06/23 05:17:49;;;;;;;2.28;2.15;;;;;;;;;;5036038;28;20029;-64
2022/06/23 05:20:29;;;;;;;2.40;2.20;;;;;;;;;;5036249;28;20018;-64
2022/06/23 05:22:54;;;;;;;;;;;;;;;;;;5036426;28;20037;-65
2022/06/23 05:25:22;;;;;;;2.10;1.80;;;;;;;;;;5035842;28;19909;-65
2022/06/23 05:27:49;;;;;;;2.15;1.85;;;;;;;;;;5035789;28;20025;-63
2022/06/23 05:30:14;;;;;;;2.40;1.90;;;;;;;;;;5035802;28;20507;-64
2022/06/23 05:32:51;;;;;;;2.75;1.88;;;;;;;;;;5035764;28;20112;-65
2022/06/23 05:35:19;;;;;;;1.83;1.73;;;;;;;;;;5035677;28;20514;-65
2022/06/23 05:37:51;;;;;;;2.95;2.22;;;;;;;;;;5035526;28;20048;-64
2022/06/23 05:40:19;;;;;;;3.95;1.98;;;;;;;;;;5035571;28;20491;-65
2022/06/23 05:42:46;;;;;;;2.75;2.00;;;;;;;;;;5035527;28;20021;-64
2022/06/23 05:45:16;;;;;;;2.55;2.17;;;;;;;;;;5035471;28;20112;-64
2022/06/23 05:47:42;;;;;;;3.13;2.03;;;;;;;;;;5035425;28;20053;-65
2022/06/23 05:50:11;;;;;;;5.15;2.30;;;;;;;;;;5035390;28;20260;-72
2022/06/23 05:52:37;;;;;;;2.35;1.95;;;;;;;;;;5017543;28;20010;-71
2022/06/23 05:55:07;;;;;;;4.55;2.30;;;;;;;;;;5035350;28;20366;-72
2022/06/23 05:57:39;;;;;;;2.20;2.00;;;;;;;;;;5017574;28;20049;-72
2022/06/23 06:00:22;;;;;;;2.50;2.30;;;;;;;;;;5033946;28;20133;-72
2022/06/23 06:02:51;;;;;;;2.85;2.10;;;;;;;;;;5035198;28;20030;-71
2022/06/23 06:05:27;;;;;;;2.90;2.22;;;;;;;;;;5034934;28;20013;-72
2022/06/23 06:07:54;;;;;;;3.40;2.40;;;;;;;;;;5035046;28;20032;-72
2022/06/23 06:10:21;;;;;;;3.80;2.45;;;;;;;;;;5035074;28;20021;-72
2022/06/23 06:12:48;;;;;;;2.20;1.88;;;;;;;;;;5017716;28;20021;-72
2022/06/23 06:15:17;;;;;;;2.00;1.90;;;;;;;;;;5036220;28;20048;-71
2022/06/23 06:17:43;;;;;;;5.13;2.30;;;;;;;;;;5035903;28;20029;-72
2022/06/23 06:20:09;;;;;;;2.88;2.08;;;;;;;;;;5035888;28;20022;-71
2022/06/23 06:22:43;;;;;;;2.83;1.90;;;;;;;;;;5036333;28;20057;-71
2022/06/23 06:25:21;;;;;;;2.35;1.73;;;;;;;;;;5018109;28;20131;-71
2022/06/23 06:27:46;;;;;;;1.75;1.63;;;;;;;;;;5035526;28;20030;-72
2022/06/23 06:30:16;;;;;;;2.42;2.00;;;;;;;;;;5035924;28;20017;-72
2022/06/23 06:32:42;;;;;;;1.90;1.80;;;;;;;;;;5035652;28;20033;-71
2022/06/23 06:35:23;;;;;;;1.80;1.70;;;;;;;;;;5035485;28;20021;-71
2022/06/23 06:37:58;;;;;;;4.63;1.70;;;;;;;;;;5035877;28;20037;-71
2022/06/23 06:40:24;;;;;;;2.20;1.80;;;;;;;;;;5036037;28;20087;-71
2022/06/23 06:42:52;;;;;;;2.03;1.60;;;;;;;;;;5035475;28;20025;-72
2022/06/23 06:45:25;;;;;;;5.03;1.80;;;;;;;;;;5018125;28;20541;-72
2022/06/23 06:47:50;;;;;;;2.50;1.90;;;;;;;;;;5035352;28;20360;-71
2022/06/23 06:50:18;;;;;;;1.73;1.50;;;;;;;;;;5035316;28;20052;-72
2022/06/23 06:52:45;;;;;;;1.60;1.50;;;;;;;;;;5035512;28;20034;-72
2022/06/23 06:55:33;;;;;;;2.60;1.58;;;;;;;;;;5035492;28;20025;-72
2022/06/23 06:58:07;;;;;;;2.70;1.70;;;;;;;;;;5024413;28;20041;-72
2022/06/23 07:00:35;;;;;;;2.78;1.48;;;;;;;;;;5035356;28;20029;-71
2022/06/23 07:03:03;;;;;;;1.15;1.08;;;;;;;;;;5017667;28;20029;-71
2022/06/23 07:05:47;;;;;;;1.50;1.40;;;;;;;;;;5035207;28;20072;-70
2022/06/23 07:08:37;;;;;;;2.65;1.65;;;;;;;;;;5035225;28;20047;-72
2022/06/23 07:11:14;;;;;;;4.22;1.85;;;;;;;;;;5024509;28;20060;-71
2022/06/23 07:13:42;;;;;;;1.80;1.70;;;;;;;;;;5035166;28;20464;-72
2022/06/23 07:16:19;;;;;;;1.65;1.55;;;;;;;;;;5017154;28;20064;-72
2022/06/23 07:18:49;;;;;;;1.75;1.40;;;;;;;;;;5034712;28;20029;-72
2022/06/23 07:21:21;;;;;;;1.50;1.30;;;;;;;;;;5048175;23;20411;-64
2022/06/23 07:23:49;;;;;;;1.88;1.73;;;;;;;;;;5049931;28;20112;-64
2022/06/23 07:26:33;;;;;;;1.60;1.50;;;;;;;;;;5035158;28;20021;-64
2022/06/23 07:29:07;;;;;;;1.50;1.40;;;;;;;;;;5035143;28;20040;-64
2022/06/23 07:31:43;;;;;;;1.48;1.33;;;;;;;;;;5034783;28;20025;-64
2022/06/23 07:34:10;;;;;;;2.85;1.52;;;;;;;;;;5034809;28;20038;-64
2022/06/23 07:36:52;;;;;;;2.08;1.35;;;;;;;;;;5033288;28;20065;-63
2022/06/23 07:39:20;;;;;;;3.22;1.63;;;;;;;;;;5034750;28;20033;-72
2022/06/23 07:41:53;;;;;;;1.75;1.63;;;;;;;;;;5057308;23;20127;-63
2022/06/23 07:44:41;;;;;;;2.13;1.35;;;;;;;;;;5034480;28;20042;-63
2022/06/23 07:47:06;;;;;;;1.40;1.30;;;;;;;;;;5034404;28;20383;-63
2022/06/23 07:49:32;;;;;;;1.45;1.30;;;;;;;;;;5034207;28;20051;-63
2022/06/23 07:51:59;;;;;;;2.80;1.50;;;;;;;;;;5034419;28;20518;-63
2022/06/23 07:54:25;;;;;;;1.85;1.30;;;;;;;;;;5034090;28;20071;-63
2022/06/23 07:56:51;;;;;;;2.53;1.40;;;;;;;;;;5034084;28;20383;-63
2022/06/23 07:59:18;;;;;;;3.03;1.40;;;;;;;;;;5034023;28;20018;-62
2022/06/23 08:01:43;;;;;;;1.17;1.08;;;;;;;;;;5016675;28;20084;-63
2022/06/23 08:04:14;;;;;;;1.52;1.42;;;;;;;;;;5034219;28;20057;-63
2022/06/23 08:06:40;;;;;;;3.08;1.63;;;;;;;;;;5016096;28;20028;-65
2022/06/23 08:09:34;;;;;;;2.45;1.55;;;;;;;;;;5033423;28;20100;-63
2022/06/23 08:18:01;;;;;;;1.58;1.48;;;;;;;;;;5033815;28;20057;-62
2022/06/23 08:20:30;;;;;;;1.73;1.30;;;;;;;;;;5033554;28;20430;-63
2022/06/23 08:22:58;;;;;;;1.60;1.50;;;;;;;;;;5033069;28;20062;-63
2022/06/23 08:25:24;;;;;;;2.67;1.42;;;;;;;;;;5016566;28;20040;-62
2022/06/23 08:27:52;;;;;;;1.60;1.50;;;;;;;;;;5033710;28;20022;-62
2022/06/23 08:30:17;;;;;;;1.50;1.38;;;;;;;;;;5033635;28;20025;-64
2022/06/23 08:32:47;;;;;;;2.55;1.50;;;;;;;;;;5033668;28;20010;-62
2022/06/23 08:35:25;;;;;;;1.63;1.50;;;;;;;;;;5034175;28;20091;-64
2022/06/23 08:37:55;;;;;;;1.40;1.30;;;;;;;;;;5015915;28;20044;-62
2022/06/23 08:40:30;;;;;;;1.60;1.40;;;;;;;;;;5033607;28;20075;-62
2022/06/23 08:43:06;;;;;;;1.48;1.38;;;;;;;;;;5015085;28;20353;-64
2022/06/23 08:45:54;;;;;;;2.63;1.33;;;;;;;;;;5032440;28;20022;-64
2022/06/23 08:48:31;;;;;;;2.17;1.40;;;;;;;;;;5032425;28;20033;-62
2022/06/23 08:51:02;;;;;;;1.42;1.33;;;;;;;;;;5032321;28;20467;-64
2022/06/23 08:53:37;;;;;;;2.22;1.30;;;;;;;;;;5032438;28;20033;-62
2022/06/23 08:56:21;;;;;;;2.95;1.48;;;;;;;;;;5032326;28;20108;-63
2022/06/23 08:58:53;;;;;;;2.40;1.30;;;;;;;;;;5032407;28;20026;-64
2022/06/23 09:01:22;;;;;;;1.42;1.33;;;;;;;;;;5032338;28;20030;-64
2022/06/23 09:03:48;;;;;;;2.47;1.30;;;;;;;;;;5032230;28;20018;-71
2022/06/23 09:06:13;;;;;;;1.67;1.30;;;;;;;;;;5032275;28;20040;-71
2022/06/23 09:08:57;;;;;;;2.28;1.30;;;;;;;;;;5032270;28;20024;-71
2022/06/23 09:11:34;;;;;;;1.77;1.35;;;;;;;;;;5031841;28;20041;-71
2022/06/23 09:14:18;;;;;;;1.48;1.38;;;;;;;;;;5032514;28;20040;-71
2022/06/23 09:16:53;;;;;;;2.90;1.58;;;;;;;;;;5032145;28;20030;-70
2022/06/23 09:19:19;;;;;;;1.33;1.33;;;;;;;;;;5032147;28;20026;-71
2022/06/23 09:21:59;;;;;;;1.85;1.50;;;;;;;;;;5032076;28;20096;-71
2022/06/23 09:24:24;;;;;;;;;;;;;;;;;;5014724;28;20033;-71
2022/06/23 09:27:08;;;;;;;2.95;1.50;;;;;;;;;;5032171;28;19955;-71
2022/06/23 09:29:57;;;;;;;2.55;1.70;;;;;;;;;;5032078;28;20103;-70
2022/06/23 09:32:40;;;;;;;1.27;1.17;;;;;;;;;;5014374;28;20087;-70
2022/06/23 09:35:24;;;;;;;1.08;0.95;;;;;;;;;;5035032;28;20083;-70
2022/06/23 09:38:05;;;;;;;1.83;1.40;;;;;;;;;;5035729;28;20372;-71
2022/06/23 09:40:33;;;;;;;1.02;1.02;;;;;;;;;;5035572;28;20029;-71
2022/06/23 09:42:59;;;;;;;2.78;1.55;;;;;;;;;;5035509;28;20026;-71
2022/06/23 09:45:32;;;;;;;3.72;1.67;;;;;;;;;;5017872;28;20036;-71
2022/06/23 09:48:16;;;;;;;2.17;1.60;;;;;;;;;;5017791;28;20410;-71
2022/06/23 09:51:00;;;;;;;2.20;1.50;;;;;;;;;;5017913;28;20116;-71
2022/06/23 09:53:58;;;;;;;1.45;1.35;;;;;;;;;;5035406;28;20475;-71
2022/06/23 09:56:27;;;;;;;1.90;1.50;;;;;;;;;;4991297;28;20037;-70
2022/06/23 09:59:08;;;;;;;1.35;1.20;;;;;;;;;;5035228;28;20014;-71
2022/06/23 10:01:44;;;;;;;2.15;1.65;;;;;;;;;;5035200;28;20022;-71
2022/06/23 10:04:15;;;;;;;2.10;1.60;;;;;;;;;;5035091;28;20037;-71
2022/06/23 10:06:43;;;;;;;2.42;1.50;;;;;;;;;;5017333;28;20056;-72
2022/06/23 10:09:20;;;;;;;1.88;1.50;;;;;;;;;;5017304;28;20037;-71
2022/06/23 10:12:11;;;;;;;4.25;1.58;;;;;;;;;;5034976;28;20037;-70
2022/06/23 10:14:39;;;;;;;1.95;1.48;;;;;;;;;;5034970;28;20117;-71
2022/06/23 10:17:07;;;;;;;2.08;1.60;;;;;;;;;;5034935;28;20029;-71
2022/06/23 10:19:32;;;;;;;1.40;1.30;;;;;;;;;;5034887;28;20037;-71
2022/06/23 10:22:16;;;;;;;1.60;1.50;;;;;;;;;;5034875;28;20021;-72
2022/06/23 10:24:52;;;;;;;1.40;1.30;;;;;;;;;;5034709;28;20041;-70
2022/06/23 10:27:30;;;;;;;2.35;1.50;;;;;;;;;;5034773;28;20026;-71
2022/06/23 10:30:07;;;;;;;2.65;2.10;;;;;;;;;;5034713;28;20431;-71
2022/06/23 10:32:59;;;;;;;3.85;1.70;;;;;;;;;;5034680;28;20029;-73
2022/06/23 10:35:30;;;;;;;1.58;1.33;;;;;;;;;;5004026;28;20116;-70
2022/06/23 10:38:23;;;;;;;1.83;1.45;;;;;;;;;;5034454;28;20053;-70
2022/06/23 10:41:00;;;;;;;2.15;1.70;;;;;;;;;;5034519;28;20032;-70
2022/06/23 10:44:04;;;;;;;3.38;1.60;;;;;;;;;;5034483;28;20104;-69
2022/06/23 10:46:49;;;;;;;2.75;1.98;;;;;;;;;;4953279;28;20481;-69
2022/06/23 10:49:36;;;;;;;1.70;1.60;;;;;;;;;;4954218;29;20039;-69
2022/06/23 10:52:02;;;;;;;2.30;1.67;;;;;;;;;;5014034;28;20042;-69
2022/06/23 10:54:30;;;;;;;1.50;1.45;;;;;;;;;;5034287;28;20022;-68
2022/06/23 10:57:08;;;;;;;1.80;1.70;;;;;;;;;;5034211;28;20033;-69
2022/06/23 10:59:49;;;;;;;3.00;1.80;;;;;;;;;;5034175;28;20155;-68
2022/06/23 11:02:33;;;;;;;2.60;1.55;;;;;;;;;;5034050;28;20033;-69
2022/06/23 11:05:04;;;;;;;1.70;1.52;;;;;;;;;;5016326;28;20033;-70
2022/06/23 11:07:42;;;;;;;5.07;1.70;;;;;;;;;;5016482;28;20022;-70
2022/06/23 11:10:07;;;;;;;1.75;1.13;;;;;;;;;;5033967;28;20079;-71
2022/06/23 11:12:56;;;;;;;1.52;1.42;;;;;;;;;;5033735;28;20046;-70
2022/06/23 11:15:40;;;;;;;1.80;1.67;;;;;;;;;;5023538;28;20041;-76
2022/06/23 11:18:12;;;;;;;3.83;2.78;;;;;;;;;;5033687;28;20030;-65
2022/06/23 11:20:57;;;;;;;3.47;3.20;;;;;;;;;;4999769;28;20032;-67
2022/06/23 11:23:30;;;;;;;1.73;1.60;;;;;;;;;;5033610;28;20029;-67
2022/06/23 11:26:14;;;;;;;1.60;1.50;;;;;;;;;;5033748;28;20025;-74
2022/06/23 11:28:56;;;;;;;1.60;1.50;;;;;;;;;;5033622;28;20365;-74
2022/06/23 11:31:30;;;;;;;1.85;1.55;;;;;;;;;;5033681;28;20060;-73
2022/06/23 11:34:20;;;;;;;1.90;1.80;;;;;;;;;;5015762;28;20088;-71
2022/06/23 11:36:45;;;;;;;1.83;1.73;;;;;;;;;;5033433;28;20036;-74
2022/06/23 11:39:10;;;;;;;1.63;1.50;;;;;;;;;;5033317;28;20021;-73
2022/06/23 11:41:52;;;;;;;1.85;1.50;;;;;;;;;;5033649;28;20032;-73
2022/06/23 11:44:29;;;;;;;1.58;1.42;;;;;;;;;;5015484;28;20039;-74
2022/06/23 11:47:00;;;;;;;2.78;1.65;;;;;;;;;;5033333;28;20033;-74
2022/06/23 11:49:28;;;;;;;1.23;1.13;;;;;;;;;;5015623;28;20144;-69
2022/06/23 11:51:57;;;;;;;2.53;1.70;;;;;;;;;;5033191;28;20021;-68
2022/06/23 11:54:42;;;;;;;2.05;1.85;;;;;;;;;;5033118;28;20033;-68
2022/06/23 11:57:23;;;;;;;1.58;1.48;;;;;;;;;;5032347;28;20159;-71
2022/06/23 11:59:55;;;;;;;2.65;1.73;;;;;;;;;;5015335;28;20029;-68
2022/06/23 12:02:20;;;;;;;1.95;1.80;;;;;;;;;;5033139;28;20475;-66
2022/06/23 12:04:54;;;;;;;1.20;1.20;;;;;;;;;;5032892;28;20027;-69
2022/06/23 12:07:38;;;;;;;1.45;1.35;;;;;;;;;;5015270;28;20029;-68
2022/06/23 12:10:04;;;;;;;3.35;1.40;;;;;;;;;;5032827;28;20030;-66
2022/06/23 12:12:33;;;;;;;1.55;1.45;;;;;;;;;;5033467;28;20060;-68
2022/06/23 12:14:59;;;;;;;1.75;1.65;;;;;;;;;;5016189;28;20032;-66
2022/06/23 12:17:30;;;;;;;1.67;1.50;;;;;;;;;;5033708;28;20041;-68
2022/06/23 12:19:59;;;;;;;2.53;1.63;;;;;;;;;;5016134;28;20475;-68
2022/06/23 12:22:31;;;;;;;2.03;1.40;;;;;;;;;;5034274;28;20025;-68
2022/06/23 12:25:02;;;;;;;1.33;1.23;;;;;;;;;;5033923;28;20033;-68
2022/06/23 12:27:48;;;;;;;1.55;1.30;;;;;;;;;;5033981;28;20053;-66
2022/06/23 12:30:15;;;;;;;2.42;1.33;;;;;;;;;;5033010;28;20099;-67
2022/06/23 12:32:44;;;;;;;1.60;1.50;;;;;;;;;;5033918;28;20013;-68
2022/06/23 12:35:10;;;;;;;2.38;1.60;;;;;;;;;;5034146;28;20489;-68
2022/06/23 12:37:57;;;;;;;1.63;1.52;;;;;;;;;;5033624;28;20104;-68
2022/06/23 12:40:25;;;;;;;1.58;1.48;;;;;;;;;;5020414;28;20048;-67
2022/06/23 12:42:55;;;;;;;1.73;1.45;;;;;;;;;;5034120;28;20025;-68
2022/06/23 12:45:21;;;;;;;2.42;1.65;;;;;;;;;;5015731;28;20480;-67
2022/06/23 12:47:58;;;;;;;1.60;1.50;;;;;;;;;;5033794;28;20029;-68
2022/06/23 12:50:32;;;;;;;1.50;1.50;;;;;;;;;;5033751;28;20057;-66
2022/06/23 12:53:04;;;;;;;2.15;1.52;;;;;;;;;;5033728;28;20025;-67
2022/06/23 12:55:39;;;;;;;1.70;1.60;;;;;;;;;;5016145;28;20128;-68
2022/06/23 12:58:08;;;;;;;2.05;1.40;;;;;;;;;;5033685;28;20057;-68
2022/06/23 13:00:33;;;;;;;1.70;1.35;;;;;;;;;;5033945;28;20026;-68
2022/06/23 13:03:01;;;;;;;1.70;1.60;;;;;;;;;;5033621;28;20098;-68
2022/06/23 13:05:32;;;;;;;2.70;1.60;;;;;;;;;;5033825;28;20022;-69
2022/06/23 13:07:57;;;;;;;1.67;1.58;;;;;;;;;;5033607;28;20036;-69
2022/06/23 13:10:26;;;;;;;1.60;1.50;;;;;;;;;;5037174;28;20026;-69
2022/06/23 13:12:55;;;;;;;1.38;1.38;;;;;;;;;;5019240;28;20049;-68
2022/06/23 13:18:09;;;;;;;2.13;1.48;;;;;;;;;;5052609;23;20065;-63
2022/06/23 13:20:40;;;;;;;1.48;1.38;;;;;;;;;;5037073;28;20057;-63
2022/06/23 13:23:28;;;;;;;1.40;1.30;;;;;;;;;;5037113;28;20053;-63
2022/06/23 13:25:56;;;;;;;1.45;1.08;;;;;;;;;;5036744;28;20033;-63
2022/06/23 13:28:42;;;;;;;2.80;1.15;;;;;;;;;;5037018;28;20033;-63
2022/06/23 13:31:23;;;;;;;2.45;1.50;;;;;;;;;;5018986;28;20033;-61
2022/06/23 13:33:48;;;;;;;1.45;1.35;;;;;;;;;;5036822;28;20144;-61
2022/06/23 13:36:26;;;;;;;1.45;1.35;;;;;;;;;;5033853;28;20088;-62
2022/06/23 13:38:52;;;;;;;1.83;1.40;;;;;;;;;;5016977;28;20056;-61
2022/06/23 13:41:31;;;;;;;1.40;1.30;;;;;;;;;;5016988;28;20103;-63
2022/06/23 13:44:02;;;;;;;18.02;2.45;;;;;;;;;;5016834;28;20029;-63
2022/06/23 13:46:34;;;;;;;1.38;1.30;;;;;;;;;;4998923;28;20068;-61
2022/06/23 13:49:03;;;;;;;1.60;1.50;;;;;;;;;;5014779;28;20034;-62
2022/06/23 13:51:29;;;;;;;2.70;1.40;;;;;;;;;;5016039;28;20037;-63
2022/06/23 13:54:03;;;;;;;1.38;1.27;;;;;;;;;;5015259;28;20022;-63
2022/06/23 13:56:28;;;;;;;2.25;1.40;;;;;;;;;;4997062;28;20480;-61
2022/06/23 13:58:59;;;;;;;1.20;1.20;;;;;;;;;;5014645;28;20022;-61
2022/06/23 14:01:39;;;;;;;2.10;1.70;;;;;;;;;;4996909;28;20029;-64
2022/06/23 14:04:20;;;;;;;1.88;1.70;;;;;;;;;;5014533;28;20030;-60
2022/06/23 14:06:49;;;;;;;3.67;3.47;;;;;;;;;;5014506;28;20096;-63
2022/06/23 14:09:14;;;;;;;7.35;4.90;;;;;;;;;;5014812;28;20014;-63
2022/06/23 14:11:42;;;;;;;23.27;20.88;;;;;;;;;;5014700;28;20036;-60
2022/06/23 14:14:11;;;;;;;1.60;1.50;;;;;;;;;;5014841;28;20439;-62
2022/06/23 14:16:45;;;;;;;2.25;1.60;;;;;;;;;;4997390;28;20037;-63
2022/06/23 14:19:15;;;;;;;2.50;1.60;;;;;;;;;;4998507;28;20037;-63
2022/06/23 14:21:41;;;;;;;1.73;1.63;;;;;;;;;;5015488;28;20018;-62
2022/06/23 14:24:18;;;;;;;2.63;1.30;;;;;;;;;;5015219;28;20025;-61
2022/06/23 14:26:53;;;;;;;1.90;1.70;;;;;;;;;;5015881;28;20109;-61
2022/06/23 14:29:25;;;;;;;1.52;1.42;;;;;;;;;;5015790;28;20028;-62
2022/06/23 14:31:59;;;;;;;2.00;1.80;;;;;;;;;;4998209;28;20034;-62
2022/06/23 14:34:24;;;;;;;1.40;1.30;;;;;;;;;;4998100;28;20449;-62
2022/06/23 14:36:53;;;;;;;1.60;1.50;;;;;;;;;;4998222;28;20065;-62
2022/06/23 14:39:24;;;;;;;1.30;1.20;;;;;;;;;;5015259;28;20042;-62
2022/06/23 14:42:01;;;;;;;1.20;1.20;;;;;;;;;;5014690;28;20076;-62
2022/06/23 14:44:36;;;;;;;1.73;1.63;;;;;;;;;;5014687;28;20104;-69
2022/06/23 14:47:04;;;;;;;1.50;1.40;;;;;;;;;;5014665;28;20056;-62
2022/06/23 14:49:39;;;;;;;1.42;1.30;;;;;;;;;;4996813;28;20113;-61
2022/06/23 14:52:11;;;;;;;1.42;1.40;;;;;;;;;;5014081;28;20037;-61
2022/06/23 14:54:36;;;;;;;1.33;1.25;;;;;;;;;;5014287;28;20092;-61
2022/06/23 14:57:17;;;;;;;1.77;1.40;;;;;;;;;;5014275;28;20476;-63
2022/06/23 14:59:43;;;;;;;1.58;1.48;;;;;;;;;;5014152;28;20038;-63
2022/06/23 15:02:09;;;;;;;1.80;1.70;;;;;;;;;;5014136;28;20032;-61
2022/06/23 15:04:47;;;;;;;1.60;1.50;;;;;;;;;;5014509;28;20049;-61
2022/06/23 15:07:16;;;;;;;4.32;1.52;;;;;;;;;;5014345;28;20030;-62
2022/06/23 15:09:41;;;;;;;2.30;1.40;;;;;;;;;;5014491;28;20077;-61
2022/06/23 15:12:08;;;;;;;1.50;1.40;;;;;;;;;;5013995;28;20022;-61
2022/06/23 15:14:54;;;;;;;1.73;1.63;;;;;;;;;;5013292;28;20014;-63
2022/06/23 15:17:22;;;;;;;2.25;1.73;;;;;;;;;;5006617;28;20492;-63
2022/06/23 15:19:55;;;;;;;1.88;1.70;;;;;;;;;;5013387;28;20030;-63
2022/06/23 15:25:18;;;;;;;2.00;1.80;;;;;;;;;;5013411;28;20081;-69
2022/06/23 15:28:12;;;;;;;2.30;1.60;;;;;;;;;;5013150;28;20018;-69
2022/06/23 15:30:57;;;;;;;1.50;1.40;;;;;;;;;;5012134;28;20089;-69
2022/06/23 15:33:41;;;;;;;3.03;1.50;;;;;;;;;;5012993;28;20037;-69